Time;durP1;ratioP1;P1;durP2;ratioP2;P2;SDS_P1;SDS_P2;PMS_P1;PMS_P2;Temp;Humidity;BMP_temperature;BMP_pressure;BME280_temperature;BME280_humidity;BME280_pressure;Samples;Min_cycle;Max_cycle;Signal;HPM_P1;HPM_P2
2022/06/03 00:00:36;;;;;;;;;;;;;;;13.64;100.00;95975.16;1028953;28;19918;-74
2022/06/03 00:01:08;;;;;;;;;;;;;;;13.65;100.00;95971.47;1026878;28;19937;-74
2022/06/03 00:01:58;;;;;;;;;;;;;;;13.66;100.00;95970.41;1026008;28;19945;-73
2022/06/03 00:02:47;;;;;;;;;;;;;;;13.66;100.00;95973.03;1026638;28;19914;-73
2022/06/03 00:03:20;;;;;;;;;;;;;;;13.62;100.00;95972.81;1030845;28;19929;-74
2022/06/03 00:04:05;;;;;;;;;;;;;;;13.62;100.00;95972.03;1030554;28;20430;-73
2022/06/03 00:04:44;;;;;;;;;;;;;;;13.60;100.00;95967.00;1029041;28;19949;-74
2022/06/03 00:05:40;;;;;;;;;;;;;;;13.61;100.00;95970.44;1039172;28;19927;-73
2022/06/03 00:06:34;;;;;;;;;;;;;;;13.61;100.00;95971.22;1030646;28;19918;-74
2022/06/03 00:07:10;;;;;;;;;;;;;;;13.62;100.00;95969.38;1030479;28;20322;-74
2022/06/03 00:07:41;;;;;;;;;;;;;;;13.63;100.00;95966.47;1039040;28;20385;-74
2022/06/03 00:08:17;;;;;;;;;;;;;;;13.65;100.00;95958.28;1043399;28;19952;-71
2022/06/03 00:09:02;;;;;;;;;;;;;;;13.72;100.00;95958.75;1043365;28;20417;-73
2022/06/03 00:09:52;;;;;;;;;;;;;;;13.72;100.00;95960.63;1039033;28;19917;-73
2022/06/03 00:10:37;;;;;;;;;;;;;;;13.73;100.00;95960.31;1039099;28;19917;-73
2022/06/03 00:11:10;;;;;;;;;;;;;;;13.72;100.00;95960.63;1035383;28;19980;-73
2022/06/03 00:12:04;;;;;;;;;;;;;;;13.73;100.00;95957.69;1038402;28;20379;-74
2022/06/03 00:12:34;;;;;;;;;;;;;;;13.70;100.00;95958.22;1034658;28;19959;-72
2022/06/03 00:13:17;;;;;;;;;;;;;;;13.72;100.00;95950.84;1038555;28;19909;-73
2022/06/03 00:13:59;;;;;;;;;;;;;;;13.71;100.00;95953.75;1038822;28;20416;-73
2022/06/03 00:14:38;;;;;;;;;;;;;;;13.70;100.00;95957.44;1038263;28;20474;-74
2022/06/03 00:15:21;;;;;;;;;;;;;;;13.66;100.00;95951.94;1038750;28;19968;-72
2022/06/03 00:16:11;;;;;;;;;;;;;;;13.66;100.00;95951.94;1038803;28;20485;-74
2022/06/03 00:17:00;;;;;;;;;;;;;;;13.70;100.00;95952.97;1029258;28;20718;-73
2022/06/03 00:17:38;;;;;;;;;;;;;;;13.66;100.00;95951.94;1043337;28;19923;-72
2022/06/03 00:18:08;;;;;;;;;;;;;;;13.64;100.00;95948.78;1043147;28;19928;-74
2022/06/03 00:18:48;;;;;;;;;;;;;;;13.61;100.00;95946.69;1034985;28;19921;-74
2022/06/03 00:19:30;;;;;;;;;;;;;;;13.60;100.00;95950.41;1035044;28;19914;-72
2022/06/03 00:20:19;;;;;;;;;;;;;;;13.58;100.00;95947.25;1035000;28;19913;-73
2022/06/03 00:21:00;;;;;;;;;;;;;;;13.57;100.00;95953.59;1042983;28;19921;-74
2022/06/03 00:21:45;;;;;;;;;;;;;;;13.56;100.00;95958.09;1042066;28;19913;-73
2022/06/03 00:22:34;;;;;;;;;;;;;;;13.51;100.00;95954.69;1038788;28;20012;-74
2022/06/03 00:23:07;;;;;;;;;;;;;;;13.51;100.00;95960.75;1033859;28;19916;-71
2022/06/03 00:23:38;;;;;;;;;;;;;;;13.49;100.00;95951.56;1039122;28;19921;-74
2022/06/03 00:24:11;;;;;;;;;;;;;;;13.48;100.00;95952.59;1042024;28;20333;-73
2022/06/03 00:24:59;;;;;;;;;;;;;;;13.47;100.00;95946.53;1039066;28;19909;-73
2022/06/03 00:25:42;;;;;;;;;;;;;;;13.47;100.00;95949.19;1042305;28;19928;-72
2022/06/03 00:26:18;;;;;;;;;;;;;;;13.45;100.00;95946.06;1030811;28;19929;-72
2022/06/03 00:27:09;;;;;;;;;;;;;;;13.44;100.00;95949.72;1034823;28;20061;-72
2022/06/03 00:27:47;;;;;;;;;;;;;;;13.44;100.00;95942.59;1025395;28;19925;-73
2022/06/03 00:28:20;;;;;;;;;;;;;;;13.44;100.00;95947.88;1034686;28;19932;-73
2022/06/03 00:28:56;;;;;;;;;;;;;;;13.44;100.00;95949.72;1042486;28;19935;-74
2022/06/03 00:29:36;;;;;;;;;;;;;;;13.46;100.00;95946.84;1045284;28;19939;-72
2022/06/03 00:30:07;;;;;;;;;;;;;;;13.42;100.00;95952.66;1044872;28;19920;-73
2022/06/03 00:30:43;;;;;;;;;;;;;;;13.44;100.00;95953.16;1042924;28;20012;-74
2022/06/03 00:31:36;;;;;;;;;;;;;;;13.42;100.00;95950.03;1039052;28;20011;-71
2022/06/03 00:32:36;;;;;;;;;;;;;;;13.41;100.00;95948.44;1034716;28;20390;-74
2022/06/03 00:33:10;;;;;;;;;;;;;;;13.43;100.00;95948.94;1034244;28;19912;-74
2022/06/03 00:33:43;;;;;;;;;;;;;;;13.41;100.00;95947.66;1035018;28;20766;-74
2022/06/03 00:34:13;;;;;;;;;;;;;;;13.38;100.00;95946.38;1036016;28;19917;-74
2022/06/03 00:34:43;;;;;;;;;;;;;;;13.35;100.00;95946.91;1038925;28;19913;-74
2022/06/03 00:35:23;;;;;;;;;;;;;;;13.34;100.00;95942.69;1039818;28;20000;-73
2022/06/03 00:35:56;;;;;;;;;;;;;;;13.33;100.00;95946.38;1046408;28;19916;-73
2022/06/03 00:36:42;;;;;;;;;;;;;;;13.32;100.00;95941.41;1038897;28;19910;-74
2022/06/03 00:37:15;;;;;;;;;;;;;;;13.30;100.00;95946.94;1037348;28;19995;-72
2022/06/03 00:37:45;;;;;;;;;;;;;;;13.28;100.00;95943.81;1034830;28;19905;-71
2022/06/03 00:38:42;;;;;;;;;;;;;;;13.29;100.00;95948.00;1037459;28;20025;-74
2022/06/03 00:39:22;;;;;;;;;;;;;;;13.26;100.00;95945.13;1030192;28;19964;-72
2022/06/03 00:39:54;;;;;;;;;;;;;;;13.25;100.00;95941.72;1035937;28;19913;-71
2022/06/03 00:40:24;;;;;;;;;;;;;;;13.24;100.00;95942.75;1038592;28;20367;-73
2022/06/03 00:41:13;;;;;;;;;;;;;;;13.20;100.00;95944.34;1038195;28;19916;-74
2022/06/03 00:41:57;;;;;;;;;;;;;;;13.19;100.00;95942.78;1039438;28;19913;-73
2022/06/03 00:42:28;;;;;;;;;;;;;;;13.18;100.00;95949.91;1037400;28;19925;-73
2022/06/03 00:43:06;;;;;;;;;;;;;;;13.18;100.00;95942.00;1034688;28;19997;-74
2022/06/03 00:43:56;;;;;;;;;;;;;;;13.16;100.00;95945.94;1033947;28;19906;-73
2022/06/03 00:44:35;;;;;;;;;;;;;;;13.14;100.00;95942.78;1039540;28;20424;-73
2022/06/03 00:45:08;;;;;;;;;;;;;;;13.12;100.00;95940.44;1042660;28;19913;-74
2022/06/03 00:45:38;;;;;;;;;;;;;;;13.11;100.00;95945.97;1039148;28;19932;-73
2022/06/03 00:46:13;;;;;;;;;;;;;;;13.09;100.00;95945.47;1039611;28;20457;-71
2022/06/03 00:46:55;;;;;;;;;;;;;;;13.09;100.00;95948.09;1035309;28;19948;-72
2022/06/03 00:47:28;;;;;;;;;;;;;;;13.08;100.00;95946.53;1039616;28;19909;-73
2022/06/03 00:48:15;;;;;;;;;;;;;;;13.05;100.00;95952.34;1043988;28;20003;-74
2022/06/03 00:48:45;;;;;;;;;;;;;;;13.02;100.00;95947.63;1041479;28;19909;-73
2022/06/03 00:49:34;;;;;;;;;;;;;;;12.98;100.00;95952.66;1043822;28;19944;-74
2022/06/03 00:50:14;;;;;;;;;;;;;;;12.96;100.00;95955.53;1043725;28;19908;-73
2022/06/03 00:50:56;;;;;;;;;;;;;;;12.92;100.00;95951.88;1043459;28;19905;-73
2022/06/03 00:51:34;;;;;;;;;;;;;;;12.89;100.00;95960.31;1042889;28;20644;-72
2022/06/03 00:52:10;;;;;;;;;;;;;;;12.87;100.00;95967.69;1035543;28;20365;-73
2022/06/03 00:52:43;;;;;;;;;;;;;;;12.86;100.00;95960.88;1029468;28;19929;-73
2022/06/03 00:53:13;;;;;;;;;;;;;;;12.87;100.00;95962.44;1029593;28;20295;-73
2022/06/03 00:53:44;;;;;;;;;;;;;;;12.82;100.00;95959.84;1032511;28;19918;-74
2022/06/03 00:54:32;;;;;;;;;;;;;;;12.82;100.00;95964.31;1036725;28;19996;-72
2022/06/03 00:55:08;;;;;;;;;;;;;;;12.79;100.00;95962.22;1040567;28;19909;-70
2022/06/03 00:55:39;;;;;;;;;;;;;;;12.73;100.00;95956.19;1039497;28;20320;-75
2022/06/03 00:56:28;;;;;;;;;;;;;;;12.67;100.00;95962.53;1039997;28;19960;-73
2022/06/03 00:57:02;;;;;;;;;;;;;;;12.63;100.00;95958.88;1041160;28;20448;-73
2022/06/03 00:57:42;;;;;;;;;;;;;;;12.61;100.00;95958.34;1039824;28;19921;-73
2022/06/03 00:58:12;;;;;;;;;;;;;;;12.57;100.00;95959.94;1039756;28;19913;-73
2022/06/03 00:59:01;;;;;;;;;;;;;;;12.55;100.00;95959.44;1039711;28;19913;-69
2022/06/03 00:59:46;;;;;;;;;;;;;;;12.52;100.00;95960.75;1035437;28;19921;-72
2022/06/03 01:00:17;;;;;;;;;;;;;;;12.47;100.00;95956.31;1038000;28;19928;-74
2022/06/03 01:00:55;;;;;;;;;;;;;;;12.43;100.00;95949.97;1031684;28;19917;-74
2022/06/03 01:01:30;;;;;;;;;;;;;;;12.42;100.00;95956.31;1033989;28;19968;-73
2022/06/03 01:02:18;;;;;;;;;;;;;;;12.39;100.00;95961.31;1030937;28;19909;-71
2022/06/03 01:03:04;;;;;;;;;;;;;;;12.39;100.00;95964.75;1039484;28;20572;-73
2022/06/03 01:03:53;;;;;;;;;;;;;;;12.42;100.00;95951.03;1037545;28;19921;-73
2022/06/03 01:04:26;;;;;;;;;;;;;;;12.46;100.00;95954.72;1042360;28;19921;-74
2022/06/03 01:05:15;;;;;;;;;;;;;;;12.46;100.00;95957.34;1039535;28;19909;-74
2022/06/03 01:06:09;;;;;;;;;;;;;;;12.44;100.00;95954.22;1039437;28;19921;-73
2022/06/03 01:06:59;;;;;;;;;;;;;;;12.37;100.00;95953.69;1027628;28;19922;-74
2022/06/03 01:07:42;;;;;;;;;;;;;;;12.34;100.00;95951.59;1035734;28;19909;-73
2022/06/03 01:08:33;;;;;;;;;;;;;;;12.29;100.00;95951.59;1039775;28;20804;-73
2022/06/03 01:09:08;;;;;;;;;;;;;;;12.27;100.00;95953.72;1039551;28;19910;-73
2022/06/03 01:09:57;;;;;;;;;;;;;;;12.24;100.00;95955.06;1039434;28;20006;-74
2022/06/03 01:10:46;;;;;;;;;;;;;;;12.20;100.00;95955.84;1037217;28;19963;-74
2022/06/03 01:11:16;;;;;;;;;;;;;;;12.17;100.00;95959.00;1043908;28;19917;-71
2022/06/03 01:12:00;;;;;;;;;;;;;;;12.15;100.00;95958.50;1043176;28;19939;-74
2022/06/03 01:12:31;;;;;;;;;;;;;;;12.10;100.00;95964.53;1043796;28;19988;-73
2022/06/03 01:13:13;;;;;;;;;;;;;;;12.10;100.00;95958.50;1040051;28;19988;-74
2022/06/03 01:13:43;;;;;;;;;;;;;;;12.07;100.00;95964.28;1031968;28;20403;-72
2022/06/03 01:14:16;;;;;;;;;;;;;;;12.06;100.00;95957.44;1032898;28;19921;-73
2022/06/03 01:15:00;;;;;;;;;;;;;;;12.07;100.00;95964.28;1034313;28;19925;-73
2022/06/03 01:15:39;;;;;;;;;;;;;;;12.02;100.00;95957.97;1035314;28;19973;-73
2022/06/03 01:16:28;;;;;;;;;;;;;;;12.03;100.00;95956.91;1031359;28;20374;-72
2022/06/03 01:17:01;;;;;;;;;;;;;;;12.07;100.00;95959.81;1019390;29;19911;-73
2022/06/03 01:17:53;;;;;;;;;;;;;;;12.08;100.00;95950.88;1027389;28;20420;-73
2022/06/03 01:18:35;;;;;;;;;;;;;;;12.11;100.00;95949.56;1035501;28;19906;-73
2022/06/03 01:19:20;;;;;;;;;;;;;;;12.11;100.00;95952.19;1031145;28;19916;-71
2022/06/03 01:19:50;;;;;;;;;;;;;;;12.13;100.00;95950.06;1035401;28;20391;-72
2022/06/03 01:20:24;;;;;;;;;;;;;;;12.11;100.00;95955.59;1035436;28;19906;-72
2022/06/03 01:21:00;;;;;;;;;;;;;;;12.01;100.00;95940.63;1029606;28;19906;-74
2022/06/03 01:21:46;;;;;;;;;;;;;;;12.09;100.00;95951.66;1022898;29;19906;-71
2022/06/03 01:22:29;;;;;;;;;;;;;;;12.08;100.00;95952.72;1019491;29;19922;-72
2022/06/03 01:23:17;;;;;;;;;;;;;;;12.04;100.00;95949.84;1023605;29;19968;-71
2022/06/03 01:23:47;;;;;;;;;;;;;;;11.98;100.00;95951.69;1027589;28;19945;-73
2022/06/03 01:24:31;;;;;;;;;;;;;;;11.97;100.00;95955.38;1039048;28;20357;-73
2022/06/03 01:25:21;;;;;;;;;;;;;;;11.92;100.00;95954.59;1038057;28;19910;-72
2022/06/03 01:25:52;;;;;;;;;;;;;;;11.92;100.00;95951.97;1039613;28;19913;-73
2022/06/03 01:26:22;;;;;;;;;;;;;;;11.91;100.00;95956.44;1035401;28;20399;-74
2022/06/03 01:26:55;;;;;;;;;;;;;;;11.90;100.00;95959.31;1031387;28;20327;-73
2022/06/03 01:27:34;;;;;;;;;;;;;;;11.87;100.00;95959.84;1031465;28;19909;-72
2022/06/03 01:28:17;;;;;;;;;;;;;;;11.85;100.00;95954.84;1033125;28;19906;-73
2022/06/03 01:28:53;;;;;;;;;;;;;;;11.90;100.00;95952.22;1038870;28;19913;-71
2022/06/03 01:29:28;;;;;;;;;;;;;;;11.96;100.00;95945.09;1038801;28;19957;-73
2022/06/03 01:30:07;;;;;;;;;;;;;;;12.02;100.00;95944.84;1038873;28;20019;-73
2022/06/03 01:30:52;;;;;;;;;;;;;;;12.00;100.00;95944.31;1035606;28;19977;-73
2022/06/03 01:31:32;;;;;;;;;;;;;;;12.10;100.00;95946.13;1031655;28;19956;-70
2022/06/03 01:32:12;;;;;;;;;;;;;;;12.13;100.00;95947.44;1038065;28;19913;-73
2022/06/03 01:32:45;;;;;;;;;;;;;;;12.13;100.00;95942.97;1035385;28;19917;-71
2022/06/03 01:33:16;;;;;;;;;;;;;;;12.16;100.00;95949.53;1039512;28;19913;-71
2022/06/03 01:33:50;;;;;;;;;;;;;;;12.13;100.00;95947.44;1039579;28;19924;-74
2022/06/03 01:34:23;;;;;;;;;;;;;;;12.07;100.00;95953.75;1039646;28;19920;-72
2022/06/03 01:35:06;;;;;;;;;;;;;;;12.03;100.00;95946.41;1035571;28;20343;-72
2022/06/03 01:35:42;;;;;;;;;;;;;;;12.00;100.00;95952.22;1033093;28;19971;-73
2022/06/03 01:36:15;;;;;;;;;;;;;;;11.97;100.00;95955.38;1027476;28;20356;-72
2022/06/03 01:37:04;;;;;;;;;;;;;;;11.94;100.00;95950.66;1028759;28;20281;-71
2022/06/03 01:37:46;;;;;;;;;;;;;;;11.90;100.00;95948.78;1031447;28;19953;-73
2022/06/03 01:38:23;;;;;;;;;;;;;;;11.88;100.00;95956.97;1031669;28;20392;-74
2022/06/03 01:38:53;;;;;;;;;;;;;;;11.79;100.00;95937.47;1035495;28;19917;-72
2022/06/03 01:39:23;;;;;;;;;;;;;;;11.87;100.00;95950.13;1034871;28;19906;-71
2022/06/03 01:40:13;;;;;;;;;;;;;;;11.83;100.00;95949.03;1036299;28;20485;-74
2022/06/03 01:40:58;;;;;;;;;;;;;;;11.82;100.00;95947.47;1039979;28;20551;-73
2022/06/03 01:41:28;;;;;;;;;;;;;;;11.78;100.00;95955.09;1039000;28;20286;-74
2022/06/03 01:41:59;;;;;;;;;;;;;;;11.76;100.00;95953.78;1039902;28;19913;-74
2022/06/03 01:42:36;;;;;;;;;;;;;;;11.75;100.00;95944.31;1035523;28;19910;-74
2022/06/03 01:43:18;;;;;;;;;;;;;;;11.74;100.00;95945.38;1035426;28;19952;-74
2022/06/03 01:43:53;;;;;;;;;;;;;;;11.72;100.00;95948.25;1031247;28;19917;-74
2022/06/03 01:44:30;;;;;;;;;;;;;;;11.69;100.00;95945.38;1030537;28;20449;-75
2022/06/03 01:45:04;;;;;;;;;;;;;;;11.66;100.00;95948.53;1031490;28;19969;-74
2022/06/03 01:45:41;;;;;;;;;;;;;;;11.65;100.00;95944.31;1033319;28;19967;-72
2022/06/03 01:46:14;;;;;;;;;;;;;;;11.63;100.00;95946.41;1035531;28;20051;-74
2022/06/03 01:47:05;;;;;;;;;;;;;;;11.62;100.00;95943.00;1037569;28;19916;-72
2022/06/03 01:48:02;;;;;;;;;;;;;;;11.60;100.00;95946.94;1043672;28;20282;-73
2022/06/03 01:48:35;;;;;;;;;;;;;;;11.61;100.00;95945.91;1028753;28;19932;-74
2022/06/03 01:49:18;;;;;;;;;;;;;;;11.61;100.00;95951.97;1033414;28;19913;-74
2022/06/03 01:49:51;;;;;;;;;;;;;;;11.63;100.00;95949.84;1039472;28;19972;-73
2022/06/03 01:50:30;;;;;;;;;;;;;;;11.60;100.00;95954.84;1037803;28;20462;-72
2022/06/03 01:51:00;;;;;;;;;;;;;;;11.57;100.00;95954.31;1032373;28;19921;-74
2022/06/03 01:51:31;;;;;;;;;;;;;;;11.56;100.00;95946.69;1030794;28;19918;-74
2022/06/03 01:52:07;;;;;;;;;;;;;;;11.37;100.00;95920.16;1032453;28;20478;-73
2022/06/03 01:52:59;;;;;;;;;;;;;;;11.55;100.00;95948.53;1035702;28;19917;-74
2022/06/03 01:53:48;;;;;;;;;;;;;;;11.54;100.00;95946.97;1039027;28;19917;-73
2022/06/03 01:54:30;;;;;;;;;;;;;;;11.53;100.00;95945.38;1039687;28;19913;-74
2022/06/03 01:55:19;;;;;;;;;;;;;;;11.52;100.00;95949.06;1035499;28;19917;-73
2022/06/03 01:56:08;;;;;;;;;;;;;;;11.49;100.00;95949.56;1033969;28;19928;-72
2022/06/03 01:56:57;;;;;;;;;;;;;;;11.47;100.00;95956.94;1032453;28;20338;-74
2022/06/03 01:57:42;;;;;;;;;;;;;;;11.45;100.00;95951.16;1035780;28;19960;-74
2022/06/03 01:58:15;;;;;;;;;;;;;;;11.46;100.00;95963.25;1035966;28;19913;-72
2022/06/03 01:59:18;;;;;;;;;;;;;;;11.44;100.00;95967.19;1039530;28;20000;-72
2022/06/03 02:00:10;;;;;;;;;;;;;;;11.40;100.00;95961.69;1023557;29;20432;-73
2022/06/03 02:00:43;;;;;;;;;;;;;;;11.38;100.00;95961.13;1024869;28;20012;-73
2022/06/03 02:01:31;;;;;;;;;;;;;;;11.36;100.00;95965.84;1039988;28;19920;-74
2022/06/03 02:02:20;;;;;;;;;;;;;;;11.36;100.00;95968.47;1041975;28;20326;-72
2022/06/03 02:02:51;;;;;;;;;;;;;;;11.33;100.00;95969.00;1043328;28;20055;-73
2022/06/03 02:03:40;;;;;;;;;;;;;;;11.31;100.00;95964.03;1040425;28;20433;-74
2022/06/03 02:04:31;;;;;;;;;;;;;;;11.32;100.00;95967.44;1031788;28;20299;-74
2022/06/03 02:05:13;;;;;;;;;;;;;;;11.33;100.00;95966.38;1027971;28;20462;-74
2022/06/03 02:05:47;;;;;;;;;;;;;;;11.38;100.00;95971.66;1027266;28;20402;-71
2022/06/03 02:06:17;;;;;;;;;;;;;;;11.37;100.00;95970.09;1023540;29;19914;-74
2022/06/03 02:07:05;;;;;;;;;;;;;;;11.33;100.00;95967.19;1025908;28;19914;-73
2022/06/03 02:07:39;;;;;;;;;;;;;;;11.35;100.00;95974.78;1027953;28;19918;-72
2022/06/03 02:08:10;;;;;;;;;;;;;;;11.38;100.00;95969.03;1033835;28;19917;-74
2022/06/03 02:08:52;;;;;;;;;;;;;;;11.37;100.00;95964.81;1036822;28;19909;-73
2022/06/03 02:09:25;;;;;;;;;;;;;;;11.48;100.00;95969.03;1040308;28;20002;-71
2022/06/03 02:10:11;;;;;;;;;;;;;;;11.53;100.00;95966.38;1040453;28;20318;-73
2022/06/03 02:10:41;;;;;;;;;;;;;;;11.64;100.00;95961.94;1035623;28;19913;-73
2022/06/03 02:11:11;;;;;;;;;;;;;;;11.66;100.00;95959.81;1035125;28;19918;-72
2022/06/03 02:11:44;;;;;;;;;;;;;;;11.55;100.00;95931.97;1035219;28;19914;-74
2022/06/03 02:12:33;;;;;;;;;;;;;;;11.65;100.00;95953.00;1036301;28;19934;-74
2022/06/03 02:13:06;;;;;;;;;;;;;;;11.65;100.00;95949.59;1040271;28;19952;-72
2022/06/03 02:13:37;;;;;;;;;;;;;;;11.64;100.00;95950.66;1031823;28;20291;-74
2022/06/03 02:14:07;;;;;;;;;;;;;;;11.65;100.00;95946.97;1035697;28;20013;-74
2022/06/03 02:14:46;;;;;;;;;;;;;;;11.63;100.00;95946.41;1035831;28;19913;-73
2022/06/03 02:15:35;;;;;;;;;;;;;;;11.62;100.00;95942.22;1035935;28;19916;-71
2022/06/03 02:16:24;;;;;;;;;;;;;;;11.61;100.00;95946.69;1031780;28;19914;-74
2022/06/03 02:17:17;;;;;;;;;;;;;;;11.60;100.00;95945.09;1039425;28;19913;-73
2022/06/03 02:17:50;;;;;;;;;;;;;;;11.61;100.00;95946.69;1035801;28;19917;-74
2022/06/03 02:18:32;;;;;;;;;;;;;;;11.62;100.00;95942.22;1035912;28;20016;-72
2022/06/03 02:19:10;;;;;;;;;;;;;;;11.62;100.00;95947.47;1033756;28;19921;-71
2022/06/03 02:19:52;;;;;;;;;;;;;;;11.62;100.00;95943.00;1031869;28;19913;-73
2022/06/03 02:20:25;;;;;;;;;;;;;;;11.62;100.00;95943.00;1031845;28;19940;-72
2022/06/03 02:21:01;;;;;;;;;;;;;;;11.64;100.00;95945.38;1034482;28;20005;-73
2022/06/03 02:21:52;;;;;;;;;;;;;;;11.66;100.00;95940.63;1035323;28;19912;-74
2022/06/03 02:22:29;;;;;;;;;;;;;;;11.67;100.00;95944.84;1033129;28;19969;-73
2022/06/03 02:23:18;;;;;;;;;;;;;;;11.65;100.00;95944.31;1031790;28;20313;-72
2022/06/03 02:24:17;;;;;;;;;;;;;;;11.65;100.00;95939.84;1031666;28;19914;-71
2022/06/03 02:24:54;;;;;;;;;;;;;;;11.66;100.00;95938.78;1025586;28;19918;-73
2022/06/03 02:25:35;;;;;;;;;;;;;;;11.67;100.00;95936.94;1034911;28;19949;-72
2022/06/03 02:26:06;;;;;;;;;;;;;;;11.64;100.00;95935.66;1027779;28;20371;-75
2022/06/03 02:26:54;;;;;;;;;;;;;;;11.66;100.00;95943.28;1032854;28;19914;-72
2022/06/03 02:27:25;;;;;;;;;;;;;;;11.65;100.00;95933.81;1038314;28;19924;-74
2022/06/03 02:28:10;;;;;;;;;;;;;;;11.66;100.00;95938.00;1035946;28;19912;-72
2022/06/03 02:28:50;;;;;;;;;;;;;;;11.65;100.00;95931.19;1040305;28;19905;-73
2022/06/03 02:30:40;;;;;;;;;;;;;;;11.67;100.00;95932.50;1039998;28;19909;-72
2022/06/03 02:31:29;;;;;;;;;;;;;;;11.71;100.00;95922.25;1039888;28;19944;-72
2022/06/03 02:32:18;;;;;;;;;;;;;;;11.71;100.00;95925.66;1040071;28;19913;-71
2022/06/03 02:32:51;;;;;;;;;;;;;;;11.73;100.00;95917.50;1040000;28;19924;-73
2022/06/03 02:33:27;;;;;;;;;;;;;;;11.74;100.00;95919.88;1039924;28;19924;-72
2022/06/03 02:34:09;;;;;;;;;;;;;;;11.76;100.00;95925.63;1035775;28;20000;-72
2022/06/03 02:34:55;;;;;;;;;;;;;;;11.80;100.00;95920.63;1031762;28;20306;-73
2022/06/03 02:35:39;;;;;;;;;;;;;;;11.82;100.00;95923.81;1027825;28;19947;-72
2022/06/03 02:36:15;;;;;;;;;;;;;;;11.82;100.00;95921.19;1030455;28;19925;-71
2022/06/03 02:36:54;;;;;;;;;;;;;;;11.82;100.00;95921.19;1031303;28;19918;-71
2022/06/03 02:37:37;;;;;;;;;;;;;;;11.83;100.00;95927.22;1035567;28;19924;-72
2022/06/03 02:38:16;;;;;;;;;;;;;;;11.82;100.00;95931.69;1027302;28;20380;-73
2022/06/03 02:39:12;;;;;;;;;;;;;;;11.84;100.00;95924.38;1030350;28;19942;-73
2022/06/03 02:39:45;;;;;;;;;;;;;;;11.82;100.00;95929.06;1012198;29;19919;-69
2022/06/03 02:40:35;;;;;;;;;;;;;;;11.83;100.00;95925.38;1019600;29;20408;-73
2022/06/03 02:41:05;;;;;;;;;;;;;;;11.82;100.00;95930.91;1039895;28;19980;-72
2022/06/03 02:41:42;;;;;;;;;;;;;;;11.83;100.00;95933.25;1034974;28;19918;-72
2022/06/03 02:42:26;;;;;;;;;;;;;;;11.82;100.00;95933.53;1034988;28;19920;-74
2022/06/03 02:43:15;;;;;;;;;;;;;;;11.77;100.00;95931.72;1035780;28;19921;-73
2022/06/03 02:43:46;;;;;;;;;;;;;;;11.76;100.00;95927.50;1039449;28;19939;-72
2022/06/03 02:44:36;;;;;;;;;;;;;;;11.74;100.00;95932.25;1039821;28;19917;-73
2022/06/03 02:45:13;;;;;;;;;;;;;;;11.72;100.00;95936.97;1040918;28;19944;-72
2022/06/03 02:45:48;;;;;;;;;;;;;;;11.71;100.00;95930.13;1039765;28;19913;-71
2022/06/03 02:46:18;;;;;;;;;;;;;;;11.71;100.00;95924.88;1039885;28;19920;-74
2022/06/03 02:46:54;;;;;;;;;;;;;;;11.71;100.00;95927.50;1035526;28;20445;-71
2022/06/03 02:47:37;;;;;;;;;;;;;;;11.71;100.00;95930.13;1035782;28;19936;-73
2022/06/03 02:48:26;;;;;;;;;;;;;;;11.71;100.00;95930.13;1035608;28;20426;-72
2022/06/03 02:49:15;;;;;;;;;;;;;;;11.73;100.00;95926.16;1039885;28;20424;-74
2022/06/03 02:49:55;;;;;;;;;;;;;;;11.72;100.00;95929.06;1039832;28;20402;-71
2022/06/03 02:50:44;;;;;;;;;;;;;;;11.72;100.00;95927.22;1039889;28;19917;-74
2022/06/03 02:51:18;;;;;;;;;;;;;;;11.73;100.00;95934.06;1039989;28;20443;-71
2022/06/03 02:51:57;;;;;;;;;;;;;;;11.73;100.00;95933.28;1034967;28;19961;-74
2022/06/03 02:52:45;;;;;;;;;;;;;;;11.68;100.00;95931.44;1035596;28;20698;-73
2022/06/03 02:53:28;;;;;;;;;;;;;;;11.67;100.00;95935.13;1035655;28;19920;-71
2022/06/03 02:54:16;;;;;;;;;;;;;;;11.62;100.00;95943.00;1044080;28;19920;-72
2022/06/03 02:54:52;;;;;;;;;;;;;;;11.57;100.00;95946.44;1040130;28;19913;-74
2022/06/03 02:55:41;;;;;;;;;;;;;;;11.55;100.00;95951.16;1039676;28;19924;-72
2022/06/03 02:56:17;;;;;;;;;;;;;;;11.51;100.00;95944.84;1031584;28;19917;-73
2022/06/03 02:56:53;;;;;;;;;;;;;;;11.49;100.00;95944.31;1030250;28;19922;-73
2022/06/03 02:57:42;;;;;;;;;;;;;;;11.47;100.00;95943.81;1031615;28;19924;-71
2022/06/03 02:58:18;;;;;;;;;;;;;;;11.45;100.00;95942.50;1030417;28;19918;-70
2022/06/03 02:58:48;;;;;;;;;;;;;;;11.40;100.00;95948.53;1028250;28;20463;-74
2022/06/03 02:59:34;;;;;;;;;;;;;;;11.40;100.00;95945.09;1028790;28;19929;-72
2022/06/03 03:00:22;;;;;;;;;;;;;;;11.38;100.00;95949.84;1031098;28;19913;-72
2022/06/03 03:00:56;;;;;;;;;;;;;;;11.39;100.00;95949.56;1034552;28;19913;-70
2022/06/03 03:01:41;;;;;;;;;;;;;;;11.38;100.00;95952.47;1034651;28;19913;-72
2022/06/03 03:02:27;;;;;;;;;;;;;;;11.34;100.00;95944.31;1030231;28;19918;-71
2022/06/03 03:03:17;;;;;;;;;;;;;;;11.35;100.00;95953.78;1035300;28;20453;-73
2022/06/03 03:03:53;;;;;;;;;;;;;;;11.36;100.00;95949.31;1035554;28;19921;-73
2022/06/03 03:04:35;;;;;;;;;;;;;;;11.33;100.00;95950.63;1039763;28;19920;-71
2022/06/03 03:05:24;;;;;;;;;;;;;;;11.35;100.00;95959.03;1039572;28;19913;-72
2022/06/03 03:05:54;;;;;;;;;;;;;;;11.35;100.00;95953.78;1038908;28;19917;-74
2022/06/03 03:06:25;;;;;;;;;;;;;;;11.38;100.00;95955.09;1039200;28;19975;-72
2022/06/03 03:07:13;;;;;;;;;;;;;;;11.38;100.00;95960.34;1039171;28;20306;-73
2022/06/03 03:08:02;;;;;;;;;;;;;;;11.30;100.00;95956.38;1031111;28;19992;-71
2022/06/03 03:08:44;;;;;;;;;;;;;;;11.33;100.00;95955.88;1030754;28;19914;-72
2022/06/03 03:09:33;;;;;;;;;;;;;;;11.33;100.00;95961.13;1027156;28;20658;-73
2022/06/03 03:10:18;;;;;;;;;;;;;;;11.29;100.00;95960.06;1031236;28;19921;-73
2022/06/03 03:11:07;;;;;;;;;;;;;;;11.24;100.00;95960.09;1031381;28;20324;-72
2022/06/03 03:11:56;;;;;;;;;;;;;;;11.21;100.00;95957.97;1035085;28;20349;-69
2022/06/03 03:12:38;;;;;;;;;;;;;;;11.18;100.00;95956.66;1039529;28;19909;-73
2022/06/03 03:13:19;;;;;;;;;;;;;;;11.18;100.00;95953.25;1037647;28;19914;-73
2022/06/03 03:13:55;;;;;;;;;;;;;;;11.17;100.00;95960.34;1038074;28;20500;-71
2022/06/03 03:14:29;;;;;;;;;;;;;;;11.16;100.00;95950.06;1035159;28;19999;-72
2022/06/03 03:15:00;;;;;;;;;;;;;;;11.15;100.00;95954.53;1031044;28;19917;-71
2022/06/03 03:15:42;;;;;;;;;;;;;;;11.19;100.00;95955.59;1025904;28;20001;-73
2022/06/03 03:16:31;;;;;;;;;;;;;;;11.19;100.00;95955.59;1030150;28;20013;-73
2022/06/03 03:17:20;;;;;;;;;;;;;;;11.20;100.00;95951.94;1035174;28;19917;-74
2022/06/03 03:17:56;;;;;;;;;;;;;;;11.23;100.00;95958.47;1039285;28;19983;-74
2022/06/03 03:18:36;;;;;;;;;;;;;;;11.26;100.00;95955.34;1039383;28;19978;-73
2022/06/03 03:19:07;;;;;;;;;;;;;;;11.28;100.00;95948.78;1043495;28;19950;-72
2022/06/03 03:19:37;;;;;;;;;;;;;;;11.29;100.00;95954.81;1043663;28;19919;-72
2022/06/03 03:20:17;;;;;;;;;;;;;;;11.33;100.00;95955.88;1043758;28;20293;-72
2022/06/03 03:20:58;;;;;;;;;;;;;;;11.37;100.00;95950.88;1043656;28;19928;-73
2022/06/03 03:21:38;;;;;;;;;;;;;;;11.42;100.00;95961.41;1042803;28;19913;-72
2022/06/03 03:22:21;;;;;;;;;;;;;;;11.44;100.00;95957.47;1039447;28;19963;-73
2022/06/03 03:23:00;;;;;;;;;;;;;;;11.44;100.00;95954.06;1039254;28;19917;-73
2022/06/03 03:23:46;;;;;;;;;;;;;;;11.46;100.00;95962.44;1039189;28;20003;-73
2022/06/03 03:24:16;;;;;;;;;;;;;;;11.47;100.00;95950.91;1039090;28;19999;-72
2022/06/03 03:24:52;;;;;;;;;;;;;;;11.48;100.00;95942.75;1039245;28;20358;-73
2022/06/03 03:25:22;;;;;;;;;;;;;;;11.49;100.00;95944.31;1039202;28;19917;-71
2022/06/03 03:25:53;;;;;;;;;;;;;;;11.52;100.00;95951.69;1035727;28;19914;-72
2022/06/03 03:26:37;;;;;;;;;;;;;;;11.56;100.00;95952.72;1037890;28;19992;-72
2022/06/03 03:27:13;;;;;;;;;;;;;;;11.57;100.00;95949.06;1035114;28;19909;-73
2022/06/03 03:27:44;;;;;;;;;;;;;;;11.61;100.00;95948.53;1041133;28;20415;-72